sensor_id;sensor_type;location;lat;lon;timestamp;pressure;altitude;pressure_sealevel;temperature;humidity
49341;BME280;35209;51.050;13.678;2023-01-15T00:02:48;98491.78;;;9.69;78.15
49341;BME280;35209;51.050;13.678;2023-01-15T00:07:50;98479.47;;;9.71;78.37
49341;BME280;35209;51.050;13.678;2023-01-15T00:12:52;98466.78;;;9.79;77.75
49341;BME280;35209;51.050;13.678;2023-01-15T00:17:54;98465.19;;;9.92;77.12
49341;BME280;35209;51.050;13.678;2023-01-15T00:22:56;98453.31;;;9.85;77.93
49341;BME280;35209;51.050;13.678;2023-01-15T00:27:57;98451.22;;;10.07;75.69
49341;BME280;35209;51.050;13.678;2023-01-15T00:33:02;98448.59;;;10.07;76.44
49341;BME280;35209;51.050;13.678;2023-01-15T00:38:03;98424.13;;;10.23;75.62
49341;BME280;35209;51.050;13.678;2023-01-15T00:43:05;98419.03;;;10.20;76.04
49341;BME280;35209;51.050;13.678;2023-01-15T00:48:07;98401.34;;;10.07;76.73
49341;BME280;35209;51.050;13.678;2023-01-15T00:53:09;98401.19;;;10.10;76.38
49341;BME280;35209;51.050;13.678;2023-01-15T00:58:11;98385.69;;;10.38;74.52
49341;BME280;35209;51.050;13.678;2023-01-15T01:03:13;98394.56;;;10.35;75.35
49341;BME280;35209;51.050;13.678;2023-01-15T01:08:15;98393.47;;;10.39;75.41
49341;BME280;35209;51.050;13.678;2023-01-15T01:13:17;98386.03;;;10.31;75.92
49341;BME280;35209;51.050;13.678;2023-01-15T01:18:19;98371.44;;;10.26;75.97
49341;BME280;35209;51.050;13.678;2023-01-15T01:23:23;98364.59;;;10.23;76.81
49341;BME280;35209;51.050;13.678;2023-01-15T01:28:25;98377.28;;;10.31;75.95
49341;BME280;35209;51.050;13.678;2023-01-15T01:33:27;98361.34;;;10.34;75.70
49341;BME280;35209;51.050;13.678;2023-01-15T01:38:29;98357.91;;;10.33;76.14
49341;BME280;35209;51.050;13.678;2023-01-15T01:49:12;98374.50;;;10.34;75.98
49341;BME280;35209;51.050;13.678;2023-01-15T01:54:17;98361.97;;;10.53;74.98
49341;BME280;35209;51.050;13.678;2023-01-15T01:59:21;98351.00;;;10.47;76.48
49341;BME280;35209;51.050;13.678;2023-01-15T02:04:25;98348.78;;;10.55;75.67
49341;BME280;35209;51.050;13.678;2023-01-15T02:09:28;98344.53;;;10.52;75.54
49341;BME280;35209;51.050;13.678;2023-01-15T02:14:38;98333.63;;;10.44;76.39
49341;BME280;35209;51.050;13.678;2023-01-15T02:19:53;98334.69;;;10.56;75.79
49341;BME280;35209;51.050;13.678;2023-01-15T02:30:28;98322.25;;;10.74;74.13
49341;BME280;35209;51.050;13.678;2023-01-15T02:35:39;98332.84;;;10.72;74.69
49341;BME280;35209;51.050;13.678;2023-01-15T02:40:47;98328.22;;;10.61;75.75
49341;BME280;35209;51.050;13.678;2023-01-15T02:45:56;98310.06;;;10.73;76.86
49341;BME280;35209;51.050;13.678;2023-01-15T02:51:04;98300.94;;;10.64;78.40
49341;BME280;35209;51.050;13.678;2023-01-15T02:56:12;98284.22;;;10.65;76.57
49341;BME280;35209;51.050;13.678;2023-01-15T03:01:25;98283.38;;;10.65;76.77
49341;BME280;35209;51.050;13.678;2023-01-15T03:06:51;98282.81;;;10.88;74.26
49341;BME280;35209;51.050;13.678;2023-01-15T03:12:25;98285.28;;;10.77;74.97
49341;BME280;35209;51.050;13.678;2023-01-15T03:17:36;98273.25;;;11.01;72.87
49341;BME280;35209;51.050;13.678;2023-01-15T03:22:43;98266.16;;;10.89;74.08
49341;BME280;35209;51.050;13.678;2023-01-15T03:27:48;98262.56;;;10.76;74.98
49341;BME280;35209;51.050;13.678;2023-01-15T03:32:54;98248.84;;;10.99;73.18
49341;BME280;35209;51.050;13.678;2023-01-15T03:37:58;98241.81;;;11.00;74.32
49341;BME280;35209;51.050;13.678;2023-01-15T03:43:06;98232.31;;;10.83;76.71
49341;BME280;35209;51.050;13.678;2023-01-15T03:48:37;98232.91;;;10.59;79.86
49341;BME280;35209;51.050;13.678;2023-01-15T03:53:49;98221.94;;;10.67;78.89
49341;BME280;35209;51.050;13.678;2023-01-15T03:59:11;98220.41;;;10.77;77.50
49341;BME280;35209;51.050;13.678;2023-01-15T04:04:30;98225.22;;;10.85;76.70
49341;BME280;35209;51.050;13.678;2023-01-15T04:09:38;98237.47;;;10.84;77.03
49341;BME280;35209;51.050;13.678;2023-01-15T04:14:44;98233.25;;;10.96;75.78
49341;BME280;35209;51.050;13.678;2023-01-15T04:19:51;98232.88;;;10.88;78.00
49341;BME280;35209;51.050;13.678;2023-01-15T04:24:53;98225.56;;;10.93;77.52
49341;BME280;35209;51.050;13.678;2023-01-15T04:29:55;98216.19;;;10.75;80.01
49341;BME280;35209;51.050;13.678;2023-01-15T04:34:57;98210.94;;;10.75;79.47
49341;BME280;35209;51.050;13.678;2023-01-15T04:39:59;98205.31;;;10.81;79.07
49341;BME280;35209;51.050;13.678;2023-01-15T04:45:00;98192.78;;;10.84;78.50
49341;BME280;35209;51.050;13.678;2023-01-15T04:50:02;98186.69;;;10.84;78.21
49341;BME280;35209;51.050;13.678;2023-01-15T04:55:04;98178.16;;;10.95;77.80
49341;BME280;35209;51.050;13.678;2023-01-15T05:00:06;98162.97;;;10.85;77.13
49341;BME280;35209;51.050;13.678;2023-01-15T05:05:09;98176.84;;;10.88;77.00
49341;BME280;35209;51.050;13.678;2023-01-15T05:10:10;98155.56;;;10.78;78.12
49341;BME280;35209;51.050;13.678;2023-01-15T05:15:12;98153.47;;;10.83;77.25
49341;BME280;35209;51.050;13.678;2023-01-15T05:20:14;98169.81;;;11.02;74.96
49341;BME280;35209;51.050;13.678;2023-01-15T05:25:16;98163.31;;;11.08;74.89
49341;BME280;35209;51.050;13.678;2023-01-15T05:30:18;98165.47;;;11.01;75.51
49341;BME280;35209;51.050;13.678;2023-01-15T05:35:20;98160.88;;;10.91;75.40
49341;BME280;35209;51.050;13.678;2023-01-15T05:40:21;98159.22;;;10.90;76.28
49341;BME280;35209;51.050;13.678;2023-01-15T05:45:23;98159.06;;;11.05;74.43
49341;BME280;35209;51.050;13.678;2023-01-15T05:50:25;98165.03;;;11.22;73.05
49341;BME280;35209;51.050;13.678;2023-01-15T05:55:29;98161.41;;;11.10;74.14
49341;BME280;35209;51.050;13.678;2023-01-15T06:00:31;98167.53;;;10.96;75.13
49341;BME280;35209;51.050;13.678;2023-01-15T06:05:32;98158.78;;;11.10;73.62
49341;BME280;35209;51.050;13.678;2023-01-15T06:10:34;98152.50;;;11.13;73.23
49341;BME280;35209;51.050;13.678;2023-01-15T06:15:36;98157.81;;;11.25;72.83
49341;BME280;35209;51.050;13.678;2023-01-15T06:20:39;98150.41;;;11.18;73.19
49341;BME280;35209;51.050;13.678;2023-01-15T06:25:40;98140.91;;;11.15;72.94
49341;BME280;35209;51.050;13.678;2023-01-15T06:30:42;98203.47;;;11.10;73.90
49341;BME280;35209;51.050;13.678;2023-01-15T06:35:44;98244.22;;;10.31;87.10
49341;BME280;35209;51.050;13.678;2023-01-15T06:40:46;98262.78;;;9.67;95.96
49341;BME280;35209;51.050;13.678;2023-01-15T06:45:47;98276.00;;;9.33;100.00
49341;BME280;35209;51.050;13.678;2023-01-15T06:51:08;98321.44;;;8.50;100.00
49341;BME280;35209;51.050;13.678;2023-01-15T06:56:09;98362.88;;;7.12;100.00
49341;BME280;35209;51.050;13.678;2023-01-15T07:01:13;98366.63;;;6.45;100.00
49341;BME280;35209;51.050;13.678;2023-01-15T07:06:16;98372.31;;;6.12;100.00
49341;BME280;35209;51.050;13.678;2023-01-15T07:11:17;98374.41;;;5.80;100.00
49341;BME280;35209;51.050;13.678;2023-01-15T07:16:19;98394.25;;;5.61;100.00
49341;BME280;35209;51.050;13.678;2023-01-15T07:21:30;98381.47;;;5.55;100.00
49341;BME280;35209;51.050;13.678;2023-01-15T07:26:32;98406.19;;;5.45;100.00
49341;BME280;35209;51.050;13.678;2023-01-15T07:31:33;98410.25;;;5.28;100.00
49341;BME280;35209;51.050;13.678;2023-01-15T07:36:36;98427.84;;;5.22;100.00
49341;BME280;35209;51.050;13.678;2023-01-15T07:41:38;98437.72;;;5.14;100.00
49341;BME280;35209;51.050;13.678;2023-01-15T07:46:58;98460.00;;;5.21;100.00
49341;BME280;35209;51.050;13.678;2023-01-15T07:52:20;98478.41;;;5.16;100.00
49341;BME280;35209;51.050;13.678;2023-01-15T07:57:22;98499.19;;;5.18;100.00
49341;BME280;35209;51.050;13.678;2023-01-15T08:02:25;98497.88;;;5.06;100.00
49341;BME280;35209;51.050;13.678;2023-01-15T08:07:27;98501.03;;;4.89;100.00
49341;BME280;35209;51.050;13.678;2023-01-15T08:12:29;98508.53;;;4.98;100.00
49341;BME280;35209;51.050;13.678;2023-01-15T08:17:50;98504.88;;;5.04;100.00
49341;BME280;35209;51.050;13.678;2023-01-15T08:22:52;98506.59;;;5.05;100.00
49341;BME280;35209;51.050;13.678;2023-01-15T08:27:54;98524.09;;;5.00;100.00
49341;BME280;35209;51.050;13.678;2023-01-15T08:33:00;98522.41;;;4.99;100.00
49341;BME280;35209;51.050;13.678;2023-01-15T08:38:05;98513.59;;;5.03;100.00
49341;BME280;35209;51.050;13.678;2023-01-15T08:43:07;98490.94;;;5.30;100.00
49341;BME280;35209;51.050;13.678;2023-01-15T08:48:09;98496.66;;;5.16;100.00
49341;BME280;35209;51.050;13.678;2023-01-15T08:53:10;98485.22;;;5.20;100.00
49341;BME280;35209;51.050;13.678;2023-01-15T08:58:12;98531.09;;;5.24;100.00
49341;BME280;35209;51.050;13.678;2023-01-15T09:03:14;98536.84;;;5.34;100.00
49341;BME280;35209;51.050;13.678;2023-01-15T09:08:16;98536.53;;;5.43;100.00
49341;BME280;35209;51.050;13.678;2023-01-15T09:13:20;98532.84;;;5.49;100.00
49341;BME280;35209;51.050;13.678;2023-01-15T09:18:22;98528.84;;;5.40;100.00
49341;BME280;35209;51.050;13.678;2023-01-15T09:23:24;98543.59;;;5.65;100.00
49341;BME280;35209;51.050;13.678;2023-01-15T09:28:27;98538.59;;;5.59;100.00
49341;BME280;35209;51.050;13.678;2023-01-15T09:33:29;98551.25;;;5.94;100.00
49341;BME280;35209;51.050;13.678;2023-01-15T09:38:31;98544.34;;;5.68;100.00
49341;BME280;35209;51.050;13.678;2023-01-15T09:54:37;98552.31;;;5.64;100.00
49341;BME280;35209;51.050;13.678;2023-01-15T09:59:46;98528.34;;;5.54;100.00
49341;BME280;35209;51.050;13.678;2023-01-15T10:04:53;98523.91;;;5.56;100.00
49341;BME280;35209;51.050;13.678;2023-01-15T10:10:03;98511.72;;;5.56;100.00
49341;BME280;35209;51.050;13.678;2023-01-15T10:25:54;98546.78;;;5.73;100.00
49341;BME280;35209;51.050;13.678;2023-01-15T10:31:17;98561.56;;;5.72;100.00
49341;BME280;35209;51.050;13.678;2023-01-15T10:46:35;98569.91;;;5.82;96.71
49341;BME280;35209;51.050;13.678;2023-01-15T10:51:45;98568.44;;;6.00;94.42
49341;BME280;35209;51.050;13.678;2023-01-15T10:57:03;98591.00;;;6.01;91.38
49341;BME280;35209;51.050;13.678;2023-01-15T11:07:27;98593.31;;;6.09;84.52
49341;BME280;35209;51.050;13.678;2023-01-15T11:12:34;98588.19;;;6.07;85.32
49341;BME280;35209;51.050;13.678;2023-01-15T11:17:54;98584.72;;;6.06;81.78
49341;BME280;35209;51.050;13.678;2023-01-15T11:23:18;98571.28;;;5.94;83.44
49341;BME280;35209;51.050;13.678;2023-01-15T11:28:32;98568.59;;;5.95;84.25
49341;BME280;35209;51.050;13.678;2023-01-15T11:33:36;98576.34;;;5.97;83.88
49341;BME280;35209;51.050;13.678;2023-01-15T11:38:48;98568.66;;;5.94;83.68
49341;BME280;35209;51.050;13.678;2023-01-15T11:43:56;98575.56;;;5.95;83.77
49341;BME280;35209;51.050;13.678;2023-01-15T11:49:18;98583.50;;;5.92;84.18
49341;BME280;35209;51.050;13.678;2023-01-15T11:54:41;98591.34;;;5.90;82.33
49341;BME280;35209;51.050;13.678;2023-01-15T11:59:47;98575.69;;;5.92;83.39
49341;BME280;35209;51.050;13.678;2023-01-15T12:04:54;98567.06;;;5.88;84.46
49341;BME280;35209;51.050;13.678;2023-01-15T12:15:26;98567.06;;;6.13;82.87
49341;BME280;35209;51.050;13.678;2023-01-15T12:31:13;98564.34;;;6.16;80.13
49341;BME280;35209;51.050;13.678;2023-01-15T12:36:21;98548.34;;;6.25;79.53
49341;BME280;35209;51.050;13.678;2023-01-15T12:41:31;98558.16;;;6.19;79.85
49341;BME280;35209;51.050;13.678;2023-01-15T12:46:53;98551.44;;;6.35;77.19
49341;BME280;35209;51.050;13.678;2023-01-15T12:52:09;98541.56;;;6.43;78.90
49341;BME280;35209;51.050;13.678;2023-01-15T12:57:16;98551.94;;;6.45;76.92
49341;BME280;35209;51.050;13.678;2023-01-15T13:02:39;98567.78;;;6.40;77.81
49341;BME280;35209;51.050;13.678;2023-01-15T13:18:24;98563.47;;;6.39;76.55
49341;BME280;35209;51.050;13.678;2023-01-15T13:34:35;98573.47;;;6.51;71.94
49341;BME280;35209;51.050;13.678;2023-01-15T13:39:39;98598.16;;;6.43;72.66
49341;BME280;35209;51.050;13.678;2023-01-15T13:44:47;98622.59;;;6.40;71.70
49341;BME280;35209;51.050;13.678;2023-01-15T13:50:00;98602.72;;;6.36;72.01
49341;BME280;35209;51.050;13.678;2023-01-15T14:00:33;98613.44;;;6.28;70.64
49341;BME280;35209;51.050;13.678;2023-01-15T14:05:36;98599.44;;;6.31;69.14
49341;BME280;35209;51.050;13.678;2023-01-15T14:10:39;98605.69;;;6.27;69.65
49341;BME280;35209;51.050;13.678;2023-01-15T14:32:08;98657.75;;;6.06;69.52
49341;BME280;35209;51.050;13.678;2023-01-15T14:37:26;98652.66;;;6.03;70.20
49341;BME280;35209;51.050;13.678;2023-01-15T14:42:33;98656.53;;;5.92;70.27
49341;BME280;35209;51.050;13.678;2023-01-15T14:48:05;98656.75;;;5.84;70.91
49341;BME280;35209;51.050;13.678;2023-01-15T14:53:29;98666.31;;;5.85;70.65
49341;BME280;35209;51.050;13.678;2023-01-15T14:59:44;98666.03;;;5.68;71.60
49341;BME280;35209;51.050;13.678;2023-01-15T15:09:54;98651.47;;;5.61;72.96
49341;BME280;35209;51.050;13.678;2023-01-15T15:25:34;98657.09;;;5.48;69.83
49341;BME280;35209;51.050;13.678;2023-01-15T15:30:42;98661.06;;;5.60;67.80
49341;BME280;35209;51.050;13.678;2023-01-15T15:35:54;98681.16;;;5.56;67.78
49341;BME280;35209;51.050;13.678;2023-01-15T15:40:59;98676.91;;;5.54;66.67
49341;BME280;35209;51.050;13.678;2023-01-15T15:46:02;98691.78;;;5.50;66.25
49341;BME280;35209;51.050;13.678;2023-01-15T15:51:53;98695.53;;;5.42;66.04
49341;BME280;35209;51.050;13.678;2023-01-15T15:57:05;98706.41;;;5.28;66.90
49341;BME280;35209;51.050;13.678;2023-01-15T16:07:27;98753.59;;;5.19;66.90
49341;BME280;35209;51.050;13.678;2023-01-15T16:12:43;98730.16;;;5.19;67.30
49341;BME280;35209;51.050;13.678;2023-01-15T16:17:47;98733.03;;;5.10;67.23
49341;BME280;35209;51.050;13.678;2023-01-15T16:23:00;98741.44;;;5.18;66.48
49341;BME280;35209;51.050;13.678;2023-01-15T16:28:03;98748.75;;;5.06;66.65
49341;BME280;35209;51.050;13.678;2023-01-15T16:33:06;98749.66;;;5.05;66.95
49341;BME280;35209;51.050;13.678;2023-01-15T16:38:14;98759.44;;;4.97;67.83
49341;BME280;35209;51.050;13.678;2023-01-15T16:43:24;98760.50;;;4.90;68.31
49341;BME280;35209;51.050;13.678;2023-01-15T16:48:30;98765.13;;;4.80;69.09
49341;BME280;35209;51.050;13.678;2023-01-15T16:53:39;98762.59;;;4.77;68.93
49341;BME280;35209;51.050;13.678;2023-01-15T16:58:41;98783.34;;;4.80;68.79
49341;BME280;35209;51.050;13.678;2023-01-15T17:03:43;98812.13;;;4.76;68.21
49341;BME280;35209;51.050;13.678;2023-01-15T17:08:47;98822.59;;;4.74;68.17
49341;BME280;35209;51.050;13.678;2023-01-15T17:13:50;98829.81;;;4.63;69.39
49341;BME280;35209;51.050;13.678;2023-01-15T17:18:52;98837.94;;;4.52;69.63
49341;BME280;35209;51.050;13.678;2023-01-15T17:23:55;98840.41;;;4.57;68.62
49341;BME280;35209;51.050;13.678;2023-01-15T17:28:57;98830.59;;;4.67;66.74
49341;BME280;35209;51.050;13.678;2023-01-15T17:34:01;98839.31;;;4.66;66.99
49341;BME280;35209;51.050;13.678;2023-01-15T17:39:03;98824.50;;;4.68;66.00
49341;BME280;35209;51.050;13.678;2023-01-15T17:44:05;98835.09;;;4.60;66.35
49341;BME280;35209;51.050;13.678;2023-01-15T17:49:07;98832.44;;;4.63;65.80
49341;BME280;35209;51.050;13.678;2023-01-15T17:54:09;98838.47;;;4.64;65.79
49341;BME280;35209;51.050;13.678;2023-01-15T17:59:11;98850.72;;;4.60;65.62
49341;BME280;35209;51.050;13.678;2023-01-15T18:04:35;98837.69;;;4.60;65.24
49341;BME280;35209;51.050;13.678;2023-01-15T18:09:57;98836.84;;;4.60;65.94
49341;BME280;35209;51.050;13.678;2023-01-15T18:14:59;98833.44;;;4.58;65.94
49341;BME280;35209;51.050;13.678;2023-01-15T18:20:01;98836.97;;;4.55;66.10
49341;BME280;35209;51.050;13.678;2023-01-15T18:25:04;98826.28;;;4.66;65.56
49341;BME280;35209;51.050;13.678;2023-01-15T18:30:11;98822.25;;;4.54;66.02
49341;BME280;35209;51.050;13.678;2023-01-15T18:35:13;98829.03;;;4.60;65.77
49341;BME280;35209;51.050;13.678;2023-01-15T18:40:15;98835.34;;;4.51;66.03
49341;BME280;35209;51.050;13.678;2023-01-15T18:45:17;98857.78;;;4.57;65.98
49341;BME280;35209;51.050;13.678;2023-01-15T18:50:37;98844.00;;;4.51;65.94
49341;BME280;35209;51.050;13.678;2023-01-15T18:55:39;98834.34;;;4.57;65.45
49341;BME280;35209;51.050;13.678;2023-01-15T19:00:41;98810.22;;;4.50;65.77
49341;BME280;35209;51.050;13.678;2023-01-15T19:05:43;98807.81;;;4.42;65.64
49341;BME280;35209;51.050;13.678;2023-01-15T19:10:44;98802.22;;;4.58;64.98
49341;BME280;35209;51.050;13.678;2023-01-15T19:15:46;98789.41;;;4.50;65.69
49341;BME280;35209;51.050;13.678;2023-01-15T19:21:07;98793.16;;;4.40;65.36
49341;BME280;35209;51.050;13.678;2023-01-15T19:26:10;98787.88;;;4.43;65.27
49341;BME280;35209;51.050;13.678;2023-01-15T19:31:12;98792.88;;;4.50;65.03
49341;BME280;35209;51.050;13.678;2023-01-15T19:36:33;98789.59;;;4.42;65.57
49341;BME280;35209;51.050;13.678;2023-01-15T19:41:35;98783.34;;;4.49;64.92
49341;BME280;35209;51.050;13.678;2023-01-15T19:46:55;98777.97;;;4.55;65.03
49341;BME280;35209;51.050;13.678;2023-01-15T19:52:15;98773.59;;;4.58;65.05
49341;BME280;35209;51.050;13.678;2023-01-15T19:57:36;98768.38;;;4.58;64.80
49341;BME280;35209;51.050;13.678;2023-01-15T20:02:38;98774.31;;;4.63;64.85
49341;BME280;35209;51.050;13.678;2023-01-15T20:07:40;98755.91;;;4.69;64.83
49341;BME280;35209;51.050;13.678;2023-01-15T20:12:43;98755.44;;;4.54;65.64
49341;BME280;35209;51.050;13.678;2023-01-15T20:18:04;98753.56;;;4.60;65.54
49341;BME280;35209;51.050;13.678;2023-01-15T20:23:05;98757.28;;;4.51;66.05
49341;BME280;35209;51.050;13.678;2023-01-15T20:28:07;98760.13;;;4.73;65.33
49341;BME280;35209;51.050;13.678;2023-01-15T20:33:14;98751.53;;;4.71;65.07
49341;BME280;35209;51.050;13.678;2023-01-15T20:38:38;98739.09;;;4.80;64.57
49341;BME280;35209;51.050;13.678;2023-01-15T20:43:45;98747.19;;;4.71;64.90
49341;BME280;35209;51.050;13.678;2023-01-15T20:49:19;98744.31;;;4.80;64.71
49341;BME280;35209;51.050;13.678;2023-01-15T20:54:28;98744.84;;;4.92;64.29
49341;BME280;35209;51.050;13.678;2023-01-15T20:59:30;98734.94;;;4.75;65.32
49341;BME280;35209;51.050;13.678;2023-01-15T21:04:32;98725.31;;;4.77;65.16
49341;BME280;35209;51.050;13.678;2023-01-15T21:09:33;98735.44;;;4.88;64.57
49341;BME280;35209;51.050;13.678;2023-01-15T21:14:35;98718.63;;;4.98;64.35
49341;BME280;35209;51.050;13.678;2023-01-15T21:19:37;98727.56;;;4.89;64.49
49341;BME280;35209;51.050;13.678;2023-01-15T21:24:39;98739.53;;;4.95;64.01
49341;BME280;35209;51.050;13.678;2023-01-15T21:29:40;98749.09;;;4.94;63.94
49341;BME280;35209;51.050;13.678;2023-01-15T21:34:42;98759.44;;;4.97;63.91
49341;BME280;35209;51.050;13.678;2023-01-15T21:39:44;98759.44;;;4.97;64.01
49341;BME280;35209;51.050;13.678;2023-01-15T21:44:45;98759.72;;;4.88;64.26
49341;BME280;35209;51.050;13.678;2023-01-15T21:49:47;98763.50;;;4.76;64.93
49341;BME280;35209;51.050;13.678;2023-01-15T21:54:49;98765.06;;;4.82;64.85
49341;BME280;35209;51.050;13.678;2023-01-15T21:59:52;98756.69;;;4.72;65.10
49341;BME280;35209;51.050;13.678;2023-01-15T22:04:54;98758.94;;;4.85;64.88
49341;BME280;35209;51.050;13.678;2023-01-15T22:09:55;98766.44;;;4.64;65.63
49341;BME280;35209;51.050;13.678;2023-01-15T22:14:57;98772.16;;;4.77;65.45
49341;BME280;35209;51.050;13.678;2023-01-15T22:19:59;98766.44;;;4.64;66.15
49341;BME280;35209;51.050;13.678;2023-01-15T22:25:01;98766.03;;;4.79;65.05
49341;BME280;35209;51.050;13.678;2023-01-15T22:30:03;98764.84;;;4.60;65.90
49341;BME280;35209;51.050;13.678;2023-01-15T22:35:05;98766.25;;;4.41;66.89
49341;BME280;35209;51.050;13.678;2023-01-15T22:40:08;98773.75;;;4.51;66.28
49341;BME280;35209;51.050;13.678;2023-01-15T22:45:10;98752.13;;;4.49;66.65
49341;BME280;35209;51.050;13.678;2023-01-15T22:50:12;98757.78;;;4.33;67.46
49341;BME280;35209;51.050;13.678;2023-01-15T22:55:13;98756.69;;;4.09;68.65
49341;BME280;35209;51.050;13.678;2023-01-15T23:00:16;98753.59;;;3.94;69.19
49341;BME280;35209;51.050;13.678;2023-01-15T23:05:18;98743.56;;;3.79;69.75
49341;BME280;35209;51.050;13.678;2023-01-15T23:10:19;98752.72;;;3.94;69.48
49341;BME280;35209;51.050;13.678;2023-01-15T23:15:21;98749.38;;;3.90;69.66
49341;BME280;35209;51.050;13.678;2023-01-15T23:20:23;98747.56;;;3.92;69.90
49341;BME280;35209;51.050;13.678;2023-01-15T23:25:25;98748.31;;;3.97;69.71
49341;BME280;35209;51.050;13.678;2023-01-15T23:30:26;98742.66;;;3.82;70.94
49341;BME280;35209;51.050;13.678;2023-01-15T23:35:28;98733.50;;;4.01;70.36
49341;BME280;35209;51.050;13.678;2023-01-15T23:40:30;98727.38;;;4.02;70.70
49341;BME280;35209;51.050;13.678;2023-01-15T23:45:34;98724.66;;;3.74;70.86
49341;BME280;35209;51.050;13.678;2023-01-15T23:50:54;98728.59;;;3.54;72.20
49341;BME280;35209;51.050;13.678;2023-01-15T23:55:57;98726.25;;;3.44;73.30
